createdAt,value
2019-06-27T00:00:55.049Z,64.59
2019-06-27T00:03:29.639Z,64.90
2019-06-27T00:06:04.769Z,64.66
2019-06-27T00:08:36.157Z,64.54
2019-06-27T00:11:12.029Z,64.97
2019-06-27T00:13:44.681Z,65.43
2019-06-27T00:16:19.920Z,65.63
2019-06-27T00:18:51.278Z,65.67
2019-06-27T00:21:24.161Z,65.24
2019-06-27T00:23:56.148Z,65.75
2019-06-27T00:26:28.275Z,65.82
2019-06-27T00:29:00.259Z,66.06
2019-06-27T00:31:33.288Z,66.12
2019-06-27T00:34:06.306Z,66.25
2019-06-27T00:36:40.204Z,66.07
2019-06-27T00:39:18.145Z,65.99
2019-06-27T00:41:53.722Z,66.29
2019-06-27T00:44:26.082Z,67.08
2019-06-27T00:46:57.366Z,66.62
2019-06-27T00:49:31.012Z,66.83
2019-06-27T00:52:05.032Z,67.03
2019-06-27T00:54:40.029Z,67.34
2019-06-27T00:57:15.074Z,66.92
2019-06-27T00:59:48.339Z,66.66
2019-06-27T01:02:23.466Z,66.45
2019-06-27T01:04:58.999Z,66.94
2019-06-27T01:07:30.506Z,67.13
2019-06-27T01:10:03.365Z,66.89
2019-06-27T01:12:36.516Z,67.20
2019-06-27T01:15:12.966Z,67.10
2019-06-27T01:17:45.381Z,66.99
2019-06-27T01:20:18.453Z,67.26
2019-06-27T01:22:51.186Z,66.88
2019-06-27T01:25:22.407Z,67.11
2019-06-27T01:27:55.675Z,67.23
2019-06-27T01:30:27.666Z,67.27
2019-06-27T01:33:00.663Z,67.41
2019-06-27T01:35:33.637Z,67.42
2019-06-27T01:38:06.478Z,67.39
2019-06-27T01:40:39.716Z,67.86
2019-06-27T01:43:16.989Z,68.05
2019-06-27T01:45:54.340Z,68.03
2019-06-27T01:48:27.837Z,68.02
2019-06-27T01:51:00.886Z,68.11
2019-06-27T01:53:33.789Z,68.10
2019-06-27T01:56:09.412Z,68.20
2019-06-27T01:58:43.527Z,68.40
2019-06-27T02:01:17.670Z,68.25
2019-06-27T02:03:51.411Z,68.09
2019-06-27T02:06:24.741Z,69.01
2019-06-27T02:08:57.746Z,68.91
2019-06-27T02:11:29.874Z,69.38
2019-06-27T02:14:05.406Z,69.08
2019-06-27T02:16:38.766Z,69.08
2019-06-27T02:19:26.272Z,68.79
2019-06-27T02:21:57.724Z,69.03
2019-06-27T02:24:28.951Z,69.16
2019-06-27T02:27:02.843Z,68.99
2019-06-27T02:29:34.865Z,69.92
2019-06-27T02:32:07.048Z,70.30
2019-06-27T02:34:40.044Z,69.66
2019-06-27T02:37:16.285Z,69.75
2019-06-27T02:39:47.820Z,70.20
2019-06-27T02:42:21.883Z,70.30
2019-06-27T02:44:55.750Z,70.14
2019-06-27T02:47:27.056Z,70.15
2019-06-27T02:50:02.512Z,69.71
2019-06-27T02:52:33.961Z,69.55
2019-06-27T02:55:06.995Z,70.28
2019-06-27T02:57:39.133Z,69.95
2019-06-27T03:00:13.672Z,69.86
2019-06-27T03:02:44.874Z,69.99
2019-06-27T03:05:20.201Z,70.48
2019-06-27T03:07:51.550Z,70.72
2019-06-27T03:10:25.007Z,70.31
2019-06-27T03:12:58.007Z,70.68
2019-06-27T03:15:31.016Z,71.12
2019-06-27T03:18:03.977Z,73.00
2019-06-27T03:20:37.999Z,73.15
2019-06-27T03:23:16.819Z,73.35
2019-06-27T03:25:51.182Z,73.63
2019-06-27T03:28:25.155Z,73.38
2019-06-27T03:30:59.989Z,74.62
2019-06-27T03:33:41.379Z,73.98
2019-06-27T03:36:13.257Z,74.45
2019-06-27T03:38:47.245Z,73.97
2019-06-27T03:41:23.051Z,74.21
2019-06-27T03:43:55.215Z,74.50
2019-06-27T03:49:46.024Z,74.40
2019-06-27T03:52:19.147Z,75.14
2019-06-27T03:54:51.902Z,74.89
2019-06-27T03:57:25.104Z,74.34
2019-06-27T03:59:58.319Z,73.74
2019-06-27T04:02:32.165Z,74.47
2019-06-27T04:08:44.838Z,74.48
2019-06-27T04:11:23.673Z,73.75
2019-06-27T04:13:55.352Z,73.82
2019-06-27T04:16:28.260Z,73.52
2019-06-27T04:19:01.581Z,73.68
2019-06-27T04:21:34.363Z,73.64
2019-06-27T04:24:08.301Z,72.96
2019-06-27T04:26:40.559Z,73.67
2019-06-27T04:29:32.632Z,74.42
2019-06-27T04:31:53.920Z,75.01
2019-06-27T04:34:29.926Z,75.30
2019-06-27T04:37:01.424Z,75.89
2019-06-27T04:39:34.163Z,75.53
2019-06-27T04:42:05.766Z,74.91
2019-06-27T04:44:39.757Z,73.96
2019-06-27T04:47:17.882Z,73.75
2019-06-27T04:49:51.621Z,73.50
2019-06-27T04:52:24.477Z,73.46
2019-06-27T04:55:02.740Z,73.61
2019-06-27T04:57:32.606Z,73.87
2019-06-27T05:00:04.844Z,74.54
2019-06-27T05:02:37.605Z,74.11
2019-06-27T05:05:12.319Z,74.18
2019-06-27T05:07:47.444Z,74.12
2019-06-27T05:10:20.903Z,74.85
2019-06-27T05:12:52.143Z,75.09
2019-06-27T05:15:23.557Z,74.95
2019-06-27T05:17:59.305Z,74.99
2019-06-27T05:20:31.075Z,74.78
2019-06-27T05:23:03.112Z,73.99
2019-06-27T05:25:36.823Z,74.20
2019-06-27T05:28:08.036Z,73.64
2019-06-27T05:30:39.683Z,73.79
2019-06-27T05:33:13.899Z,73.32
2019-06-27T05:35:45.417Z,72.96
2019-06-27T05:38:18.214Z,72.32
2019-06-27T05:40:51.921Z,71.57
2019-06-27T05:43:25.668Z,71.13
2019-06-27T05:45:57.823Z,70.84
2019-06-27T05:48:33.528Z,71.74
2019-06-27T05:51:06.816Z,73.13
2019-06-27T05:53:45.615Z,73.21
2019-06-27T05:56:16.150Z,72.81
2019-06-27T05:58:51.897Z,72.07
2019-06-27T06:01:23.168Z,71.30
2019-06-27T06:03:56.119Z,70.92
2019-06-27T06:06:28.100Z,70.50
2019-06-27T06:09:01.069Z,69.75
2019-06-27T06:11:33.870Z,68.21
2019-06-27T06:14:07.935Z,69.88
2019-06-27T06:16:39.746Z,68.78
2019-06-27T06:19:18.462Z,68.55
2019-06-27T06:21:51.993Z,68.16
2019-06-27T06:24:26.758Z,67.79
2019-06-27T06:26:57.995Z,67.15
2019-06-27T06:29:30.104Z,67.23
2019-06-27T06:32:03.880Z,67.32
2019-06-27T06:34:36.396Z,65.05
2019-06-27T06:37:09.257Z,63.99
2019-06-27T06:39:42.420Z,63.60
2019-06-27T06:42:16.537Z,61.96
2019-06-27T06:44:48.062Z,62.28
2019-06-27T06:47:22.831Z,62.71
2019-06-27T06:49:55.233Z,63.23
2019-06-27T06:52:28.173Z,62.47
2019-06-27T06:55:01.026Z,61.72
2019-06-27T06:57:34.272Z,61.43
2019-06-27T07:00:09.007Z,61.14
2019-06-27T07:02:43.122Z,60.07
2019-06-27T07:05:16.294Z,59.92
2019-06-27T07:07:49.364Z,58.74
2019-06-27T07:10:23.995Z,59.10
2019-06-27T07:12:55.199Z,59.34
2019-06-27T07:15:30.101Z,57.37
2019-06-27T07:18:04.347Z,58.93
2019-06-27T07:20:37.273Z,58.93
2019-06-27T07:23:10.276Z,58.40
2019-06-27T07:25:43.329Z,58.70
2019-06-27T07:28:16.305Z,59.06
2019-06-27T07:30:49.251Z,59.09
2019-06-27T07:33:21.545Z,59.39
2019-06-27T07:35:54.413Z,58.96
2019-06-27T07:38:26.503Z,58.93
2019-06-27T07:40:58.443Z,58.42
2019-06-27T07:43:32.699Z,58.18
2019-06-27T07:46:04.483Z,58.94
2019-06-27T07:48:36.467Z,59.28
2019-06-27T07:51:08.918Z,58.32
2019-06-27T07:53:40.352Z,58.78
2019-06-27T07:56:14.403Z,58.90
2019-06-27T07:58:47.571Z,58.06
2019-06-27T08:01:34.077Z,59.23
2019-06-27T08:03:53.362Z,58.90
2019-06-27T08:06:27.019Z,58.44
2019-06-27T08:09:00.236Z,59.05
2019-06-27T08:11:31.455Z,57.11
2019-06-27T08:14:06.214Z,57.89
2019-06-27T08:16:37.593Z,57.65
2019-06-27T08:19:10.741Z,57.57
2019-06-27T08:21:45.506Z,57.34
2019-06-27T08:24:19.520Z,57.19
2019-06-27T08:26:52.047Z,57.07
2019-06-27T08:29:26.855Z,56.23
2019-06-27T08:31:58.524Z,56.43
2019-06-27T08:34:31.634Z,55.88
2019-06-27T08:37:05.082Z,55.48
2019-06-27T08:39:38.011Z,57.95
2019-06-27T08:42:10.766Z,56.99
2019-06-27T08:44:42.083Z,57.32
2019-06-27T08:47:14.697Z,57.27
2019-06-27T08:49:47.827Z,56.67
2019-06-27T08:52:19.834Z,56.38
2019-06-27T08:54:52.071Z,56.78
2019-06-27T08:57:27.404Z,57.07
2019-06-27T08:59:59.477Z,56.77
2019-06-27T09:02:32.823Z,55.55
2019-06-27T09:05:04.821Z,55.43
2019-06-27T09:07:40.664Z,57.13
2019-06-27T09:10:14.818Z,57.14
2019-06-27T09:12:48.103Z,56.12
2019-06-27T09:15:19.889Z,55.50
2019-06-27T09:17:52.199Z,55.76
2019-06-27T09:20:24.858Z,55.03
2019-06-27T09:22:57.637Z,54.38
2019-06-27T09:25:28.896Z,53.79
2019-06-27T09:28:02.165Z,53.99
2019-06-27T09:30:35.063Z,54.85
2019-06-27T09:33:08.194Z,55.71
2019-06-27T09:35:41.927Z,53.87
2019-06-27T09:38:13.917Z,54.49
2019-06-27T09:40:47.333Z,55.57
2019-06-27T09:43:19.113Z,54.76
2019-06-27T09:45:52.130Z,54.87
2019-06-27T09:48:24.989Z,56.87
2019-06-27T09:50:59.030Z,55.85
2019-06-27T09:53:31.023Z,54.45
2019-06-27T09:56:04.020Z,54.81
2019-06-27T09:58:37.415Z,57.56
2019-06-27T10:01:10.989Z,55.94
2019-06-27T10:03:46.398Z,55.40
2019-06-27T10:06:19.168Z,55.30
2019-06-27T10:08:52.338Z,54.96
2019-06-27T10:11:25.130Z,55.38
2019-06-27T10:14:00.511Z,55.23
2019-06-27T10:16:36.411Z,51.12
2019-06-27T10:19:11.973Z,52.72
2019-06-27T10:21:43.220Z,54.42
2019-06-27T10:24:16.396Z,54.44
2019-06-27T10:26:48.328Z,53.77
2019-06-27T10:29:31.490Z,55.12
2019-06-27T10:32:05.418Z,54.96
2019-06-27T10:34:39.340Z,55.83
2019-06-27T10:40:47.277Z,55.45
2019-06-27T10:43:19.309Z,54.46
2019-06-27T10:45:51.478Z,55.63
2019-06-27T10:51:48.939Z,54.41
2019-06-27T10:54:25.762Z,54.39
2019-06-27T10:57:00.384Z,53.60
2019-06-27T10:59:33.447Z,54.55
2019-06-27T11:02:13.842Z,54.78
2019-06-27T11:04:47.102Z,55.16
2019-06-27T11:07:19.544Z,53.89
2019-06-27T11:24:05.250Z,53.43
2019-06-27T11:37:34.128Z,52.37
2019-06-27T11:43:33.828Z,52.09
2019-06-27T11:46:08.832Z,49.27
2019-06-27T11:52:26.473Z,49.32
2019-06-27T11:55:00.807Z,48.69
2019-06-27T11:57:34.821Z,46.45
2019-06-27T12:00:08.881Z,47.54
2019-06-27T12:02:42.892Z,45.44
2019-06-27T12:05:16.760Z,45.17
2019-06-27T12:07:49.759Z,44.59
2019-06-27T12:10:57.136Z,46.23
2019-06-27T12:13:29.983Z,45.01
2019-06-27T12:16:02.901Z,45.21
2019-06-27T12:18:35.822Z,45.54
2019-06-27T12:21:14.476Z,45.73
2019-06-27T12:27:16.676Z,46.68
2019-06-27T12:29:51.110Z,47.34
2019-06-27T12:32:25.219Z,47.35
2019-06-27T12:48:36.944Z,45.50
2019-06-27T12:51:08.079Z,46.24
2019-06-27T12:53:42.635Z,46.65
2019-06-27T12:56:23.350Z,45.68
2019-06-27T12:58:56.060Z,47.28
2019-06-27T13:01:31.239Z,47.77
2019-06-27T13:04:22.372Z,48.02
2019-06-27T13:06:41.857Z,48.43
2019-06-27T13:09:14.242Z,47.70
2019-06-27T13:11:48.551Z,48.77
2019-06-27T13:14:21.153Z,49.61
2019-06-27T13:16:54.662Z,49.67
2019-06-27T13:19:28.602Z,50.62
2019-06-27T13:22:01.189Z,51.70
2019-06-27T13:24:32.424Z,52.27
2019-06-27T13:27:05.531Z,52.53
2019-06-27T13:29:38.198Z,52.35
2019-06-27T13:32:11.168Z,52.94
2019-06-27T13:34:43.286Z,53.29
2019-06-27T13:37:16.230Z,53.83
2019-06-27T13:39:49.299Z,53.95
2019-06-27T13:42:23.402Z,54.53
2019-06-27T13:44:56.251Z,55.16
2019-06-27T13:47:30.156Z,54.88
2019-06-27T13:50:02.334Z,54.34
2019-06-27T13:52:36.356Z,54.05
2019-06-27T13:55:08.706Z,53.73
2019-06-27T13:57:41.671Z,53.17
2019-06-27T14:00:15.935Z,53.86
2019-06-27T14:02:47.283Z,54.31
2019-06-27T14:05:20.510Z,54.85
2019-06-27T14:07:53.241Z,55.00
2019-06-27T14:10:28.086Z,55.75
2019-06-27T14:12:59.321Z,57.15
2019-06-27T14:15:34.169Z,56.99
2019-06-27T14:18:05.978Z,57.56
2019-06-27T14:20:39.487Z,58.08
2019-06-27T14:23:13.083Z,57.75
2019-06-27T14:25:45.412Z,57.34
2019-06-27T14:28:18.627Z,57.70
2019-06-27T14:30:51.586Z,58.13
2019-06-27T14:33:23.869Z,58.36
2019-06-27T14:35:55.414Z,57.30
2019-06-27T14:38:28.567Z,57.27
2019-06-27T14:41:01.563Z,56.95
2019-06-27T14:43:37.803Z,56.91
2019-06-27T14:46:10.658Z,56.78
2019-06-27T14:48:49.908Z,57.12
2019-06-27T14:51:23.651Z,57.10
2019-06-27T14:53:57.342Z,57.62
2019-06-27T14:56:33.136Z,57.15
2019-06-27T14:59:05.712Z,56.11
2019-06-27T15:01:37.494Z,55.48
2019-06-27T15:04:10.683Z,55.29
2019-06-27T15:06:43.693Z,55.25
2019-06-27T15:09:17.690Z,55.51
2019-06-27T15:11:52.491Z,55.25
2019-06-27T15:14:27.800Z,55.87
2019-06-27T15:17:03.273Z,55.41
2019-06-27T15:19:36.477Z,55.08
2019-06-27T15:22:10.851Z,55.74
2019-06-27T15:24:42.110Z,56.18
2019-06-27T15:27:13.872Z,56.42
2019-06-27T15:29:46.859Z,56.57
2019-06-27T15:32:20.887Z,56.46
2019-06-27T15:34:53.531Z,56.90
2019-06-27T15:37:25.846Z,57.30
2019-06-27T15:39:58.849Z,57.43
2019-06-27T15:42:30.051Z,57.74
2019-06-27T15:45:01.944Z,58.18
2019-06-27T15:47:35.034Z,57.78
2019-06-27T15:50:08.270Z,58.06
2019-06-27T15:52:40.988Z,58.94
2019-06-27T15:55:14.034Z,58.36
2019-06-27T15:57:47.149Z,58.33
2019-06-27T16:00:19.901Z,58.29
2019-06-27T16:02:52.814Z,58.84
2019-06-27T16:05:26.321Z,58.93
2019-06-27T16:08:00.602Z,58.42
2019-06-27T16:10:31.919Z,57.54
2019-06-27T16:13:04.944Z,57.24
2019-06-27T16:15:38.239Z,56.95
2019-06-27T16:18:11.407Z,56.42
2019-06-27T16:20:43.053Z,56.44
2019-06-27T16:23:17.010Z,55.72
2019-06-27T16:25:50.176Z,55.47
2019-06-27T16:28:26.742Z,55.88
2019-06-27T16:30:58.571Z,55.01
2019-06-27T16:33:31.046Z,55.17
2019-06-27T16:36:05.240Z,54.98
2019-06-27T16:38:38.223Z,55.88
2019-06-27T16:41:11.862Z,55.09
2019-06-27T16:43:44.278Z,55.05
2019-06-27T16:46:17.210Z,54.12
2019-06-27T16:48:51.123Z,54.37
2019-06-27T16:51:23.361Z,54.49
2019-06-27T16:53:56.288Z,53.59
2019-06-27T16:56:29.266Z,52.84
2019-06-27T16:59:06.008Z,53.55
2019-06-27T17:01:42.993Z,53.26
2019-06-27T17:04:14.334Z,53.72
2019-06-27T17:06:46.348Z,53.71
2019-06-27T17:09:20.474Z,53.66
2019-06-27T17:11:52.890Z,53.25
2019-06-27T17:14:33.711Z,53.19
2019-06-27T17:17:05.287Z,54.49
2019-06-27T17:19:39.108Z,55.37
2019-06-27T17:22:12.531Z,53.83
2019-06-27T17:24:46.388Z,53.06
2019-06-27T17:27:21.607Z,52.30
2019-06-27T17:29:52.880Z,49.97
2019-06-27T17:32:27.159Z,49.58
2019-06-27T17:34:59.558Z,48.68
2019-06-27T17:37:31.394Z,48.24
2019-06-27T17:40:10.010Z,47.70
2019-06-27T17:42:42.483Z,47.08
2019-06-27T17:45:20.415Z,47.01
2019-06-27T17:47:52.855Z,45.77
2019-06-27T17:50:28.177Z,45.67
2019-06-27T17:52:59.431Z,44.87
2019-06-27T17:55:32.709Z,45.30
2019-06-27T17:58:06.054Z,47.28
2019-06-27T18:00:39.607Z,46.26
2019-06-27T18:03:13.971Z,47.28
2019-06-27T18:05:47.699Z,47.88
2019-06-27T18:08:20.262Z,49.67
2019-06-27T18:14:44.553Z,52.48
2019-06-27T18:17:33.946Z,52.15
2019-06-27T18:20:07.717Z,51.44
2019-06-27T18:22:42.899Z,51.98
2019-06-27T18:25:17.524Z,52.95
2019-06-27T18:27:51.216Z,53.26
2019-06-27T18:30:25.738Z,53.39
2019-06-27T18:33:01.000Z,54.38
2019-06-27T18:35:42.256Z,54.99
2019-06-27T18:38:14.892Z,54.80
2019-06-27T18:40:46.484Z,54.20
2019-06-27T18:50:36.693Z,54.08
2019-06-27T18:56:47.209Z,54.51
2019-06-27T18:59:18.449Z,54.25
2019-06-27T19:01:54.034Z,53.81
2019-06-27T19:04:31.167Z,54.79
2019-06-27T19:07:02.847Z,54.96
2019-06-27T19:09:35.463Z,54.75
2019-06-27T19:12:09.041Z,55.39
2019-06-27T19:14:42.544Z,54.75
2019-06-27T19:17:17.747Z,55.86
2019-06-27T19:19:53.677Z,55.40
2019-06-27T19:22:43.952Z,55.74
2019-06-27T19:25:30.351Z,54.79
2019-06-27T19:28:02.756Z,54.83
2019-06-27T19:30:34.030Z,54.83
2019-06-27T19:33:07.998Z,55.15
2019-06-27T19:35:41.291Z,54.89
2019-06-27T19:38:12.989Z,54.96
2019-06-27T19:40:47.008Z,54.22
2019-06-27T19:43:27.886Z,54.28
2019-06-27T19:45:53.338Z,55.06
2019-06-27T19:48:25.757Z,54.15
2019-06-27T19:51:00.471Z,53.96
2019-06-27T19:53:32.516Z,55.49
2019-06-27T19:56:05.181Z,51.64
2019-06-27T19:58:39.452Z,49.76
2019-06-27T20:01:12.291Z,48.13
2019-06-27T20:03:45.716Z,47.53
2019-06-27T20:06:18.469Z,46.14
2019-06-27T20:08:51.078Z,45.73
2019-06-27T20:11:25.496Z,45.20
2019-06-27T20:13:59.269Z,47.83
2019-06-27T20:16:32.231Z,44.51
2019-06-27T20:19:06.100Z,44.84
2019-06-27T20:21:40.285Z,44.46
2019-06-27T20:24:14.636Z,43.98
2019-06-27T20:26:48.665Z,42.26
2019-06-27T20:29:22.577Z,41.42
2019-06-27T20:31:53.876Z,41.75
2019-06-27T20:34:28.353Z,40.46
2019-06-27T20:37:02.329Z,39.63
2019-06-27T20:39:35.300Z,40.54
2019-06-27T20:42:08.258Z,39.05
2019-06-27T20:44:40.249Z,38.62
2019-06-27T20:47:12.077Z,37.94
2019-06-27T20:49:46.035Z,38.01
2019-06-27T20:52:18.525Z,37.80
2019-06-27T20:54:52.076Z,38.51
2019-06-27T20:57:26.226Z,38.71
2019-06-27T21:00:01.137Z,36.48
2019-06-27T21:02:32.560Z,37.91
2019-06-27T21:05:06.753Z,37.20
2019-06-27T21:07:38.433Z,38.27
2019-06-27T21:10:13.032Z,36.75
2019-06-27T21:12:44.384Z,36.58
2019-06-27T21:15:17.704Z,36.69
2019-06-27T21:17:49.369Z,36.91
2019-06-27T21:20:22.769Z,37.14
2019-06-27T21:22:57.159Z,35.54
2019-06-27T21:25:29.561Z,36.73
2019-06-27T21:28:02.504Z,36.17
2019-06-27T21:30:35.657Z,37.34
2019-06-27T21:33:08.984Z,37.45
2019-06-27T21:35:44.664Z,37.06
2019-06-27T21:38:17.315Z,37.64
2019-06-27T21:40:49.506Z,37.64
2019-06-27T21:43:24.543Z,37.79
2019-06-27T21:45:56.551Z,38.59
2019-06-27T21:48:29.200Z,37.65
2019-06-27T21:51:03.276Z,38.26
2019-06-27T21:53:40.652Z,38.83
2019-06-27T21:56:16.866Z,39.17
2019-06-27T21:58:49.198Z,39.36
2019-06-27T22:04:46.585Z,38.63
2019-06-27T22:07:21.674Z,38.93
2019-06-27T22:09:53.365Z,38.72
2019-06-27T22:12:26.370Z,39.21
2019-06-27T22:14:58.664Z,38.68
2019-06-27T22:17:31.646Z,39.71
2019-06-27T22:20:14.470Z,40.67
2019-06-27T22:22:37.842Z,38.18
2019-06-27T22:25:11.425Z,38.60
2019-06-27T22:27:43.026Z,39.35
2019-06-27T22:30:15.257Z,40.07
2019-06-27T22:32:50.113Z,40.24
2019-06-27T22:35:21.331Z,41.19
2019-06-27T22:38:11.119Z,41.79
2019-06-27T22:41:02.698Z,41.73
2019-06-27T22:43:52.359Z,42.26
2019-06-27T22:46:43.869Z,42.25
2019-06-27T22:49:16.113Z,42.99
2019-06-27T22:52:05.977Z,43.52
2019-06-27T22:54:40.842Z,43.49
2019-06-27T22:57:16.220Z,43.86
2019-06-27T22:59:51.789Z,44.48
2019-06-27T23:02:24.884Z,44.79
2019-06-27T23:04:58.117Z,45.57
2019-06-27T23:07:33.167Z,45.42
2019-06-27T23:10:06.204Z,45.88
2019-06-27T23:12:39.306Z,44.52
2019-06-27T23:15:12.419Z,44.88
2019-06-27T23:17:43.972Z,45.46
2019-06-27T23:20:18.208Z,46.36
2019-06-27T23:22:51.301Z,46.65
2019-06-27T23:25:25.224Z,47.93
2019-06-27T23:27:57.088Z,46.73
2019-06-27T23:30:31.116Z,46.91
2019-06-27T23:33:03.174Z,47.69
2019-06-27T23:35:37.407Z,46.60
2019-06-27T23:38:09.136Z,48.01
2019-06-27T23:40:41.374Z,47.98
2019-06-27T23:43:14.313Z,49.12
2019-06-27T23:45:45.616Z,48.25
2019-06-27T23:48:18.430Z,47.72
2019-06-27T23:50:53.048Z,47.96
2019-06-27T23:53:27.366Z,48.63
2019-06-27T23:55:59.681Z,47.86
2019-06-27T23:58:32.520Z,48.32
